Tuesday, February 20, 2018, 10:42 AM EST
Back to Local

KTEB, Teterboro Airport

Location: South Hackensack, NJ, United States Lat: 40.867
Local Time: 10:42 AM EST (15:42 GMT) Lon: -74.05
Time Zone: US/Eastern Elev: 9 ft

Show me the last for .
Show Decoded

2018-02-20 09:51 METAR KTEB 201451Z COR 27012G17KT 5SM BR OVC009 11/09 A3033 RMK AO2 SLP271
                 T01110094 53002 =
2018-02-20 08:51 METAR KTEB 201351Z 26008KT 5SM BR OVC006 11/09 A3033 RMK AO2 SLP269 T01060094 $
                 =
2018-02-20 07:51 METAR KTEB 201251Z 23006KT 3SM BR OVC005 10/09 A3033 RMK AO2 SLP269 T01000089 $
                 =
2018-02-20 07:49 METAR KTEB 201249Z 23006KT 3SM BR OVC005 10/09 A3033 =
2018-02-20 07:33 METAR KTEB 201233Z 24007KT 3SM BR OVC004 09/09 A3032 RMK AO2 CIG 003V008
                 T00940089 $ =
2018-02-20 07:19 METAR KTEB 201219Z VRB06KT 1SM R06/P6000FT BR OVC003 09/09 A3032 RMK AO2
                 T00940089 $ =
2018-02-20 06:51 METAR KTEB 201151Z 21005KT 1/2SM R06/4500V6000FT FG OVC003 09/09 A3031 RMK AO2
                 SLP263 60000 70004 T00890089 10094 20072 53008 $ =
2018-02-20 06:24 METAR KTEB 201124Z 22003KT 1 1/2SM BR OVC004 09/09 A3030 RMK AO2 T00890089 $ =
2018-02-20 06:00 METAR KTEB 201100Z 00000KT 2SM BR OVC004 09/08 A3030 RMK AO2 T00940083 $ =
2018-02-20 05:51 METAR KTEB 201051Z 00000KT 3SM BR OVC004 09/09 A3030 RMK AO2 SLP259 T00940089 $
                 =
2018-02-20 04:51 METAR KTEB 200951Z VRB03KT 3SM BR OVC004 09/08 A3029 RMK AO2 SLP257 T00890083 $
                 =
2018-02-20 04:33 METAR KTEB 200933Z 00000KT 3SM BR OVC004 09/08 A3028 RMK AO2 T00890083 $ =
2018-02-20 03:51 METAR KTEB 200851Z 00000KT 1SM R06/P6000FT BR OVC004 08/08 A3028 RMK AO2 DZE08
                 SLP254 P0000 60000 T00830083 58006 $ =
2018-02-20 03:19 METAR KTEB 200819Z 00000KT 1/2SM R06/2200V4500FT FG OVC003 08/08 A3028 =
2018-02-20 02:51 METAR KTEB 200751Z 00000KT 1/8SM R06/2000V2400FT -DZ FG VV002 08/08 A3029 RMK
                 AO2 TWR VIS 1/2 SLP257 P0000 T00780078 $ =
2018-02-20 01:51 METAR KTEB 200651Z 00000KT 1/8SM R06/2000V2200FT -DZ FG OVC002 07/07 A3029 RMK
                 AO2 TWR VIS 1/2 SLP258 P0000 T00720072 $ =
2018-02-20 00:51 METAR KTEB 200551Z 00000KT 1/4SM R06/2200V2600FT -DZ FG OVC003 08/07 A3030 RMK
                 AO2 TWR VIS 1/2 SLP260 P0000 60003 T00780072 10083 20072 55009 $ =
2018-02-19 23:51 METAR KTEB 200451Z 00000KT 1/4SM R06/2600V4000FT -DZ FG OVC003 07/07 A3030 RMK
                 AO2 TWR VIS 1/2 SLP259 P0000 T00720072 401001011 $ =
2018-02-19 23:35 METAR KTEB 200435Z 15003KT 1/4SM R06/3000V4500FT -DZ FG OVC003 07/07 A3030 RMK
                 AO2 TWR VIS 1/2 P0000 T00720067 $ =
2018-02-19 22:51 METAR KTEB 200351Z 00000KT 1/2SM R06/P6000FT -DZ FG OVC003 07/07 A3033 RMK AO2
                 SLP269 P0000 T00720067 $ =
2018-02-19 22:03 METAR KTEB 200303Z 00000KT 1/2SM R06/P6000FT -DZ FG OVC002 07/07 A3033 RMK AO2
                 P0000 T00720067 $ =
2018-02-19 21:51 METAR KTEB 200251Z COR 31003KT 1SM R06/4500VP6000FT -DZ BR OVC002 08/07 A3033
                 RMK AO2 TWR VIS 2 RAE20DZB20 SLP269 P0000 60003 T00780072 58004 =
2018-02-19 21:20 METAR KTEB 200220Z 00000KT 1 3/4SM -DZ BR OVC003 08/07 A3033 RMK AO2 TWR VIS 2
                 RAE20DZB20 P0000 T00780072 =
2018-02-19 20:51 METAR KTEB 200151Z 00000KT 2SM -RA BR OVC005 08/07 A3034 RMK AO2 SLP273 P0002
                 T00780067 =
2018-02-19 19:51 METAR KTEB 200051Z VRB04KT 4SM -RA BR OVC008 08/07 A3035 RMK AO2 SLP275 P0001
                 T00780067 =
2018-02-19 19:30 METAR KTEB 200030Z 23004KT 4SM -RA BR OVC008 08/07 A3034 RMK AO2 P0001 T00780067
                 =
2018-02-19 18:51 METAR KTEB 192351Z VRB03KT 4SM -RA BR OVC011 08/07 A3034 RMK AO2
                 RAE31B47DZB31E46 SLP274 P0001 60001 T00780067 10100 20078 56011 =
2018-02-19 17:51 METAR KTEB 192251Z 20005KT 4SM -RA BR OVC014 08/06 A3035 RMK AO2 RAB2159 SLP278
                 P0000 T00780061 =
2018-02-19 17:34 METAR KTEB 192234Z 22005KT 4SM -RA BR OVC014 08/06 A3036 RMK AO2 RAB2159 P0000
                 T00780061 =
2018-02-19 16:51 METAR KTEB 192151Z 20005KT 10SM OVC025 09/06 A3035 RMK AO2 SLP277 T00890056 =
2018-02-19 15:51 METAR KTEB 192051Z 19008KT 10SM OVC028 09/04 A3037 RMK AO2 SLP285 T00890044
                 56017 =
2018-02-19 15:36 METAR KTEB 192036Z 21004KT 10SM OVC028 09/04 A3038 RMK AO2 T00890039 =
2018-02-19 14:51 METAR KTEB 191951Z 19006KT 10SM OVC034 09/03 A3038 RMK AO2 SLP287 T00890033 =
2018-02-19 13:51 METAR KTEB 191851Z 20005KT 10SM OVC040 09/03 A3039 RMK AO2 SLP290 T00890028 =
2018-02-19 12:51 METAR KTEB 191751Z 19008KT 10SM OVC047 08/03 A3042 RMK AO2 SLP302 T00830028
                 10089 21006 58023 =
2018-02-19 11:51 METAR KTEB 191651Z 18010KT 10SM OVC049 08/02 A3045 RMK AO2 SLP312 T00780022 =
2018-02-19 10:51 METAR KTEB 191551Z 20010KT 10SM BKN055 OVC110 07/01 A3050 RMK AO2 SLP327
                 T00670011 $ =

Support USWX by starting your Amazon purchase here.